Time;durP1;ratioP1;P1;durP2;ratioP2;P2;SDS_P1;SDS_P2;PMS_P1;PMS_P2;Temp;Humidity;BMP_temperature;BMP_pressure;BME280_temperature;BME280_humidity;BME280_pressure;Samples;Min_cycle;Max_cycle;Signal;HPM_P1;HPM_P2
2021/03/25 00:01:47;;;;;;;94.43;42.83;;;14.70;48.40;;;;;;5039476;28;20554;-63
2021/03/25 00:04:14;;;;;;;79.22;41.08;;;;;;;;;;5074132;28;20051;-64
2021/03/25 00:06:47;;;;;;;86.70;41.65;;;14.60;48.30;;;;;;5073621;28;20098;-63
2021/03/25 00:09:23;;;;;;;87.78;40.13;;;14.60;48.20;;;;;;5074051;28;20075;-64
2021/03/25 00:11:50;;;;;;;84.60;41.58;;;;;;;;;;5072974;28;20044;-66
2021/03/25 00:14:17;;;;;;;77.63;38.83;;;;;;;;;;5073431;28;20516;-64
2021/03/25 00:16:44;;;;;;;93.70;42.20;;;;;;;;;;5072531;28;20056;-65
2021/03/25 00:19:11;;;;;;;94.30;41.20;;;14.80;48.30;;;;;;5035005;28;20099;-65
2021/03/25 00:21:39;;;;;;;89.25;41.10;;;;;;;;;;5073363;28;20044;-64
2021/03/25 00:24:07;;;;;;;86.85;42.72;;;14.70;48.40;;;;;;5073094;28;20099;-65
2021/03/25 00:26:34;;;;;;;90.10;42.10;;;;;;;;;;5072552;28;20036;-65
2021/03/25 00:29:01;;;;;;;99.32;41.75;;;;;;;;;;5072880;28;20040;-66
2021/03/25 00:31:28;;;;;;;99.35;42.72;;;;;;;;;;5072819;28;20486;-66
2021/03/25 00:33:55;;;;;;;85.72;41.33;;;;;;;;;;5073114;28;20458;-66
2021/03/25 00:36:22;;;;;;;91.55;44.08;;;;;;;;;;5073049;28;20049;-67
2021/03/25 00:38:49;;;;;;;95.28;43.38;;;;;;;;;;5042363;28;20057;-65
2021/03/25 00:41:17;;;;;;;90.47;41.10;;;;;;;;;;5062628;28;20117;-65
2021/03/25 00:43:44;;;;;;;84.75;41.72;;;;;;;;;;5047778;28;20037;-64
2021/03/25 00:46:11;;;;;;;91.07;43.72;;;;;;;;;;5066768;28;20094;-66
2021/03/25 00:48:41;;;;;;;91.32;43.22;;;;;;;;;;5045539;28;20493;-65
2021/03/25 00:51:09;;;;;;;103.15;44.28;;;;;;;;;;5043018;28;20037;-65
2021/03/25 00:53:37;;;;;;;95.93;42.88;;;14.50;49.50;;;;;;5056707;28;20052;-65
2021/03/25 00:56:06;;;;;;;89.47;41.97;;;14.50;49.40;;;;;;5039958;28;20120;-64
2021/03/25 00:58:35;;;;;;;95.85;44.28;;;;;;;;;;5032122;28;20052;-64
2021/03/25 01:01:04;;;;;;;87.97;43.10;;;14.50;49.50;;;;;;5062220;28;20148;-65
2021/03/25 01:03:32;;;;;;;92.35;42.35;;;;;;;;;;5071265;28;20082;-66
2021/03/25 01:06:00;;;;;;;89.63;41.47;;;;;;;;;;5072733;28;20478;-65
2021/03/25 01:08:27;;;;;;;85.47;43.08;;;;;;;;;;5054364;28;20055;-65
2021/03/25 01:11:13;;;;;;;89.50;42.30;;;14.30;49.50;;;;;;5071813;28;20040;-65
2021/03/25 01:13:44;;;;;;;85.93;39.83;;;14.60;49.50;;;;;;5040453;28;20041;-65
2021/03/25 01:16:35;;;;;;;90.78;41.53;;;14.50;49.40;;;;;;5072281;28;20045;-64
2021/03/25 01:19:09;;;;;;;79.78;40.67;;;14.50;49.30;;;;;;5032765;28;20491;-65
2021/03/25 01:21:38;;;;;;;87.45;41.70;;;14.50;49.30;;;;;;5025621;28;20107;-64
2021/03/25 01:24:05;;;;;;;92.65;42.50;;;;;;;;;;5055178;28;20048;-65
2021/03/25 01:26:32;;;;;;;94.28;41.47;;;;;;;;;;5064647;28;20120;-66
2021/03/25 01:29:00;;;;;;;97.20;41.58;;;;;;;;;;5029314;28;20508;-65
2021/03/25 01:31:29;;;;;;;93.65;41.22;;;14.30;50.10;;;;;;5017636;28;20095;-64
2021/03/25 01:33:59;;;;;;;84.03;40.25;;;;;;;;;;5030889;28;20052;-64
2021/03/25 01:36:27;;;;;;;92.20;41.42;;;;;;;;;;5034174;28;20049;-65
2021/03/25 01:38:54;;;;;;;92.13;40.28;;;;;;;;;;5051824;28;20040;-66
2021/03/25 01:41:31;;;;;;;84.72;41.30;;;14.20;50.30;;;;;;5052971;28;20045;-65
2021/03/25 01:44:00;;;;;;;;;;;14.20;50.80;;;;;;5052625;28;20080;-66
2021/03/25 01:46:39;;;;;;;84.45;39.15;;;14.10;50.60;;;;;;5041726;28;19920;-65
2021/03/25 01:49:15;;;;;;;80.78;40.00;;;14.20;50.40;;;;;;5051858;28;20049;-66
2021/03/25 01:52:07;;;;;;;89.25;41.75;;;14.10;50.20;;;;;;5034373;28;20041;-66
2021/03/25 01:54:38;;;;;;;91.27;40.03;;;;;;;;;;5039194;28;20049;-66
2021/03/25 01:57:38;;;;;;;85.30;40.55;;;14.40;50.00;;;;;;5051614;28;20044;-62
2021/03/25 02:00:19;;;;;;;80.93;39.85;;;14.40;49.80;;;;;;5037743;28;20112;-65
2021/03/25 02:03:32;;;;;;;82.82;40.08;;;14.40;49.90;;;;;;5012088;28;20099;-65
2021/03/25 02:06:19;;;;;;;84.90;41.17;;;14.40;49.80;;;;;;5047652;28;20055;-65
2021/03/25 02:08:47;;;;;;;86.90;40.63;;;;;;;;;;5072222;28;20045;-65
2021/03/25 02:11:27;;;;;;;94.18;42.35;;;14.50;49.30;;;;;;5054505;28;20041;-65
2021/03/25 02:14:40;;;;;;;85.93;39.08;;;14.50;49.30;;;;;;5053827;28;20052;-64
2021/03/25 02:17:33;;;;;;;82.55;38.67;;;14.50;49.20;;;;;;5042700;28;20064;-65
2021/03/25 02:20:32;;;;;;;83.70;39.60;;;14.50;49.40;;;;;;5049580;28;20053;-64
2021/03/25 02:23:20;;;;;;;80.10;39.63;;;14.40;49.30;;;;;;5032812;28;20113;-65
2021/03/25 02:25:54;;;;;;;88.53;39.65;;;14.50;49.40;;;;;;5032630;28;20049;-66
2021/03/25 02:28:43;;;;;;;83.75;40.30;;;14.40;49.30;;;;;;5032400;28;20562;-68
2021/03/25 02:31:39;;;;;;;77.05;38.08;;;14.50;49.40;;;;;;5032288;28;20057;-63
2021/03/25 02:34:11;;;;;;;87.85;40.25;;;14.50;49.30;;;;;;4970461;28;20051;-66
2021/03/25 02:37:05;;;;;;;87.68;37.33;;;14.50;49.30;;;;;;4969609;28;20073;-65
2021/03/25 02:39:35;;;;;;;74.68;36.33;;;;;;;;;;4970254;28;20072;-66
2021/03/25 02:42:31;;;;;;;82.97;38.28;;;14.30;49.50;;;;;;4970126;28;20047;-66
2021/03/25 02:45:08;;;;;;;84.88;39.08;;;14.30;49.70;;;;;;4953887;28;20074;-65
2021/03/25 02:47:39;;;;;;;81.47;37.97;;;14.30;49.70;;;;;;4970308;28;20058;-66
2021/03/25 02:50:20;;;;;;;83.68;38.28;;;14.30;49.70;;;;;;4954079;28;20058;-65
2021/03/25 02:52:53;;;;;;;76.78;37.65;;;14.40;49.70;;;;;;4969537;28;20497;-64
2021/03/25 02:55:21;;;;;;;80.05;37.55;;;;;;;;;;4969972;28;20054;-65
2021/03/25 02:58:09;;;;;;;78.20;37.72;;;14.30;50.00;;;;;;4983388;28;20133;-65
2021/03/25 03:00:44;;;;;;;84.60;38.20;;;14.20;50.10;;;;;;4989567;28;20050;-65
2021/03/25 03:03:17;;;;;;;80.88;37.38;;;14.10;50.20;;;;;;4977285;28;20051;-65
2021/03/25 03:06:24;;;;;;;82.80;38.20;;;14.10;50.00;;;;;;4976252;28;20054;-64
2021/03/25 03:09:03;;;;;;;88.20;37.67;;;14.20;50.40;;;;;;4976410;28;20069;-66
2021/03/25 03:11:46;;;;;;;80.75;38.40;;;14.10;50.20;;;;;;5021159;28;20068;-66
2021/03/25 03:14:29;;;;;;;89.20;38.10;;;14.30;50.20;;;;;;5036584;28;20461;-66
2021/03/25 03:17:04;;;;;;;85.72;38.30;;;14.30;50.10;;;;;;5036371;28;20049;-66
2021/03/25 03:19:39;;;;;;;92.90;37.70;;;14.30;50.10;;;;;;5036674;28;20825;-66
2021/03/25 03:22:12;;;;;;;85.63;39.40;;;;;;;;;;5036459;28;20052;-65
2021/03/25 03:25:09;;;;;;;84.35;36.92;;;14.20;50.30;;;;;;5048357;28;20061;-66
2021/03/25 03:27:48;;;;;;;81.53;38.80;;;14.20;50.30;;;;;;5036677;28;20069;-65
2021/03/25 03:30:25;;;;;;;79.38;36.80;;;14.20;50.40;;;;;;5036809;28;20049;-65
2021/03/25 03:33:24;;;;;;;80.93;37.35;;;14.30;50.50;;;;;;5036158;28;20052;-65
2021/03/25 03:35:56;;;;;;;87.50;37.80;;;14.40;50.70;;;;;;5053666;28;20041;-66
2021/03/25 03:38:40;;;;;;;74.85;36.70;;;14.20;50.50;;;;;;5036281;28;20490;-65
2021/03/25 03:41:31;;;;;;;84.70;37.28;;;14.30;50.40;;;;;;5053898;28;20049;-64
2021/03/25 03:44:04;;;;;;;86.80;37.65;;;14.30;50.40;;;;;;5035987;28;20041;-66
2021/03/25 03:46:35;;;;;;;86.18;39.13;;;14.30;50.40;;;;;;5032643;28;20513;-65
2021/03/25 03:49:12;;;;;;;77.35;37.65;;;14.30;50.40;;;;;;5022113;28;20095;-65
2021/03/25 03:52:00;;;;;;;81.15;37.72;;;14.20;50.60;;;;;;5053699;28;20094;-63
2021/03/25 03:54:29;;;;;;;92.57;38.65;;;;;;;;;;5053760;28;20060;-66
2021/03/25 03:57:12;;;;;;;80.10;36.83;;;14.20;50.40;;;;;;5035749;28;20052;-64
2021/03/25 04:00:01;;;;;;;79.85;36.80;;;14.30;50.50;;;;;;5036118;28;20173;-64
2021/03/25 04:02:36;;;;;;;89.03;39.72;;;14.30;50.50;;;;;;5035720;28;20073;-65
2021/03/25 04:05:24;;;;;;;;;;;14.30;51.00;;;;;;5041695;28;20053;-65
2021/03/25 04:08:09;;;;;;;77.80;37.55;;;14.10;50.50;;;;;;5055847;28;20428;-65
2021/03/25 04:11:22;;;;;;;80.72;37.13;;;14.00;50.70;;;;;;5055765;28;20044;-66
2021/03/25 04:14:00;;;;;;;86.95;37.70;;;14.20;50.90;;;;;;5073389;28;20510;-64
2021/03/25 04:16:31;;;;;;;80.55;37.83;;;14.10;50.90;;;;;;5056134;28;20045;-65
2021/03/25 04:19:14;;;;;;;86.45;37.75;;;;;;;;;;5055064;28;20586;-66
2021/03/25 04:22:03;;;;;;;89.20;38.92;;;14.10;51.10;;;;;;5055739;28;20048;-65
2021/03/25 04:24:34;;;;;;;81.95;39.03;;;14.10;51.20;;;;;;5055447;28;20044;-64
2021/03/25 04:27:10;;;;;;;86.32;38.50;;;13.90;51.10;;;;;;5073132;28;20419;-65
2021/03/25 04:29:41;;;;;;;79.72;37.67;;;14.00;51.30;;;;;;5072921;28;20048;-65
2021/03/25 04:32:09;;;;;;;84.45;38.63;;;;;;;;;;5055214;28;20049;-66
2021/03/25 04:34:37;;;;;;;86.75;38.38;;;;;;;;;;5073119;28;20051;-65
2021/03/25 04:37:06;;;;;;;91.88;40.90;;;13.90;51.30;;;;;;5072812;28;20048;-65
2021/03/25 04:39:34;;;;;;;84.60;38.30;;;13.90;51.40;;;;;;5073497;28;20048;-64
2021/03/25 04:42:02;;;;;;;87.95;40.38;;;14.10;51.50;;;;;;5073109;28;20486;-65
2021/03/25 04:44:29;;;;;;;82.40;38.92;;;;;;;;;;5073102;28;20036;-65
2021/03/25 04:47:19;;;;;;;93.18;41.17;;;13.90;51.50;;;;;;5072086;28;20048;-65
2021/03/25 04:50:11;;;;;;;90.97;39.95;;;13.80;51.40;;;;;;5072604;28;20044;-66
2021/03/25 04:52:40;;;;;;;102.57;41.13;;;;;;;;;;5060661;28;20041;-66
2021/03/25 04:55:12;;;;;;;106.18;41.30;;;13.80;51.60;;;;;;5072523;28;20044;-64
2021/03/25 04:57:43;;;;;;;89.45;40.88;;;13.60;51.40;;;;;;5072781;28;20060;-65
2021/03/25 05:00:14;;;;;;;79.70;38.25;;;13.60;51.50;;;;;;5072585;28;20044;-65
2021/03/25 05:02:42;;;;;;;92.00;40.00;;;13.80;51.60;;;;;;5053723;28;20483;-65
2021/03/25 05:05:16;;;;;;;94.57;40.78;;;13.80;51.50;;;;;;5065316;28;20126;-65
2021/03/25 05:07:46;;;;;;;95.38;40.63;;;;;;;;;;5072000;28;20475;-64
2021/03/25 05:10:21;;;;;;;93.97;42.28;;;13.70;51.60;;;;;;5072168;28;20055;-64
2021/03/25 05:12:51;;;;;;;89.30;39.45;;;13.70;51.60;;;;;;5072126;28;20040;-65
2021/03/25 05:15:20;;;;;;;97.03;41.00;;;13.70;51.60;;;;;;5072229;28;20053;-66
2021/03/25 05:18:05;;;;;;;85.60;40.42;;;13.50;51.60;;;;;;5071102;28;20048;-66
2021/03/25 05:20:43;;;;;;;99.82;41.28;;;13.60;51.80;;;;;;5072142;28;20570;-66
2021/03/25 05:23:22;;;;;;;94.60;41.20;;;13.50;51.90;;;;;;5058857;28;20071;-64
2021/03/25 05:25:49;;;;;;;86.38;38.40;;;;;;;;;;5053434;28;20737;-66
2021/03/25 05:28:28;;;;;;;92.10;41.15;;;13.50;51.90;;;;;;5072012;28;20045;-64
2021/03/25 05:30:55;;;;;;;106.93;44.05;;;;;;;;;;5070543;28;20090;-65
2021/03/25 05:33:26;;;;;;;87.43;41.10;;;13.50;51.90;;;;;;5071292;28;20226;-65
2021/03/25 05:35:59;;;;;;;98.50;40.95;;;13.40;52.10;;;;;;5070955;28;20056;-65
2021/03/25 05:38:27;;;;;;;100.15;42.25;;;;;;;;;;5071460;28;20044;-64
2021/03/25 05:41:23;;;;;;;96.25;42.08;;;13.30;52.10;;;;;;5071832;28;20049;-64
2021/03/25 05:44:27;;;;;;;86.00;39.70;;;13.30;52.40;;;;;;5071346;28;20049;-64
2021/03/25 05:46:54;;;;;;;94.45;43.33;;;;;;;;;;5070776;28;20125;-66
2021/03/25 05:49:36;;;;;;;98.00;41.92;;;13.20;52.30;;;;;;5071585;28;20506;-64
2021/03/25 05:52:03;;;;;;;100.15;43.33;;;;;;;;;;5071270;28;20048;-64
2021/03/25 05:54:58;;;;;;;103.43;43.95;;;13.00;52.60;;;;;;5053338;28;20048;-66
2021/03/25 05:57:52;;;;;;;90.72;41.22;;;13.10;52.70;;;;;;4703279;28;10000273;-65
2021/03/25 06:00:19;;;;;;;97.82;43.17;;;;;;;;;;5068486;28;20041;-65
2021/03/25 06:03:01;;;;;;;110.82;43.38;;;13.00;53.10;;;;;;5069010;28;20599;-67
2021/03/25 06:05:28;;;;;;;98.38;43.15;;;;;;;;;;5051391;28;20048;-65
2021/03/25 06:08:13;;;;;;;92.32;42.00;;;12.90;53.70;;;;;;5069228;28;20044;-65
2021/03/25 06:11:02;;;;;;;89.25;41.55;;;12.90;53.70;;;;;;5068812;28;20044;-65
2021/03/25 06:13:54;;;;;;;94.22;41.63;;;12.90;53.40;;;;;;5068868;28;20049;-64
2021/03/25 06:16:55;;;;;;;92.97;45.03;;;13.00;53.80;;;;;;5025965;28;20057;-65
2021/03/25 06:19:54;;;;;;;108.68;46.67;;;13.00;53.40;;;;;;5026194;28;20046;-67
2021/03/25 06:22:32;;;;;;;96.50;44.95;;;13.00;53.30;;;;;;5009502;28;20289;-66
2021/03/25 06:25:26;;;;;;;105.22;45.85;;;13.10;53.30;;;;;;5026271;28;20045;-65
2021/03/25 06:28:13;;;;;;;100.43;46.30;;;13.10;53.40;;;;;;5026161;28;20084;-64
2021/03/25 06:31:08;;;;;;;101.85;47.05;;;13.20;53.40;;;;;;5025943;28;20045;-65
2021/03/25 06:33:42;;;;;;;104.55;45.30;;;13.20;53.30;;;;;;5011754;28;20107;-65
2021/03/25 06:36:14;;;;;;;95.78;47.33;;;13.10;53.70;;;;;;5028148;28;20132;-66
2021/03/25 06:38:54;;;;;;;112.38;47.22;;;13.10;53.90;;;;;;5032543;28;20100;-66
2021/03/25 06:41:44;;;;;;;98.10;47.60;;;13.00;53.90;;;;;;5032582;28;20056;-66
2021/03/25 06:44:19;;;;;;;102.93;48.78;;;13.00;54.20;;;;;;5003993;28;20048;-66
2021/03/25 06:46:47;;;;;;;101.65;46.65;;;13.10;54.20;;;;;;5032161;28;20068;-65
2021/03/25 06:49:32;;;;;;;107.60;49.67;;;13.10;54.00;;;;;;5032520;28;20138;-65
2021/03/25 06:52:18;;;;;;;102.50;48.13;;;13.20;53.90;;;;;;5032362;28;20520;-65
2021/03/25 06:54:45;;;;;;;;;;;13.20;54.40;;;;;;5019443;28;20124;-67
2021/03/25 06:57:15;;;;;;;;;;;13.20;54.40;;;;;;5032509;28;19971;-68
2021/03/25 06:59:43;;;;;;;102.43;45.55;;;13.20;54.10;;;;;;5051759;28;19920;-66
2021/03/25 07:02:29;;;;;;;96.28;44.40;;;13.20;54.30;;;;;;5074223;28;20140;-67
2021/03/25 07:05:00;;;;;;;103.75;44.80;;;13.20;54.50;;;;;;5056199;28;21514;-67
2021/03/25 07:07:35;;;;;;;103.88;44.00;;;13.20;54.80;;;;;;5073738;28;20041;-66
2021/03/25 07:10:05;;;;;;;93.32;45.90;;;13.30;54.90;;;;;;5056802;28;20330;-67
2021/03/25 07:12:38;;;;;;;88.10;41.65;;;13.40;54.30;;;;;;5077071;28;20067;-68
2021/03/25 07:15:06;;;;;;;91.60;44.38;;;13.40;54.20;;;;;;5077921;28;20051;-66
2021/03/25 07:17:41;;;;;;;93.18;42.78;;;13.50;54.20;;;;;;5077847;28;20040;-67
2021/03/25 07:20:23;;;;;;;86.68;42.78;;;13.70;53.80;;;;;;5076630;28;20487;-66
2021/03/25 07:22:59;;;;;;;90.45;42.22;;;13.90;53.90;;;;;;5075374;28;20838;-67
2021/03/25 07:25:28;;;;;;;92.18;42.85;;;14.00;53.20;;;;;;5076258;28;20098;-67
2021/03/25 07:27:56;;;;;;;91.07;42.60;;;;;;;;;;5076140;28;20044;-66
2021/03/25 07:30:50;;;;;;;92.32;42.08;;;14.10;53.40;;;;;;5076389;28;20096;-69
2021/03/25 07:33:19;;;;;;;81.20;39.65;;;14.20;53.40;;;;;;5040800;28;20045;-66
2021/03/25 07:35:55;;;;;;;96.20;41.58;;;14.20;53.40;;;;;;5065802;28;20049;-67
2021/03/25 07:38:43;;;;;;;85.25;41.70;;;14.40;53.20;;;;;;5054209;28;20041;-66
2021/03/25 07:41:10;;;;;;;86.10;39.53;;;;;;;;;;5053787;28;20048;-66
2021/03/25 07:44:06;;;;;;;88.70;39.17;;;14.60;53.00;;;;;;5035615;28;20041;-68
2021/03/25 07:46:49;;;;;;;88.13;39.20;;;14.40;53.40;;;;;;5053398;28;20041;-66
2021/03/25 07:49:28;;;;;;;81.90;38.33;;;14.50;53.30;;;;;;5035194;28;20045;-66
2021/03/25 07:52:05;;;;;;;76.47;36.85;;;14.60;53.20;;;;;;5052534;28;20037;-65
2021/03/25 07:54:38;;;;;;;78.72;38.10;;;14.60;52.90;;;;;;5035880;28;20095;-68
2021/03/25 07:57:16;;;;;;;87.82;37.28;;;14.70;52.70;;;;;;5052810;28;20152;-66
2021/03/25 07:59:43;;;;;;;71.50;37.58;;;;;;;;;;5053612;28;20499;-65
2021/03/25 08:02:22;;;;;;;84.20;35.60;;;14.90;52.60;;;;;;5052475;28;20041;-65
2021/03/25 08:04:49;;;;;;;72.22;35.13;;;;;;;;;;5054297;28;20052;-68
2021/03/25 08:07:16;;;;;;;70.97;35.15;;;;;;;;;;5073090;28;20040;-68
2021/03/25 08:09:48;;;;;;;81.93;37.95;;;15.30;51.60;;;;;;5054887;28;20052;-67
2021/03/25 08:12:34;;;;;;;77.43;36.38;;;15.50;51.40;;;;;;5072682;28;20128;-67
2021/03/25 08:15:22;;;;;;;74.25;34.70;;;15.20;52.00;;;;;;5073278;28;20036;-67
2021/03/25 08:17:54;;;;;;;63.95;31.90;;;15.20;52.20;;;;;;5072735;28;20048;-68
2021/03/25 08:20:32;;;;;;;76.32;34.88;;;15.10;52.50;;;;;;5072940;28;20047;-68
2021/03/25 08:23:33;;;;;;;72.10;34.90;;;15.00;52.50;;;;;;5072383;28;20047;-66
2021/03/25 08:26:26;;;;;;;70.07;34.28;;;15.00;53.00;;;;;;5071546;28;20040;-67
2021/03/25 08:29:01;;;;;;;64.55;31.70;;;14.90;53.30;;;;;;5072186;28;20091;-68
2021/03/25 08:31:52;;;;;;;64.18;33.80;;;15.00;53.20;;;;;;5072452;28;20059;-68
2021/03/25 08:34:31;;;;;;;64.80;34.40;;;15.00;53.30;;;;;;5072563;28;20090;-66
2021/03/25 08:37:22;;;;;;;66.10;33.42;;;14.90;53.60;;;;;;5072447;28;20387;-65
2021/03/25 08:40:02;;;;;;;62.85;32.15;;;14.90;53.70;;;;;;5071742;28;20041;-67
2021/03/25 08:43:06;;;;;;;72.65;33.22;;;14.80;53.80;;;;;;5054307;28;20048;-67
2021/03/25 08:45:50;;;;;;;66.85;31.98;;;15.00;53.60;;;;;;5055079;28;20410;-67
2021/03/25 08:48:40;;;;;;;71.05;31.30;;;15.30;53.30;;;;;;5072489;28;20502;-67
2021/03/25 08:51:19;;;;;;;59.05;32.38;;;15.50;52.50;;;;;;5061228;28;20033;-69
2021/03/25 08:53:59;;;;;;;60.47;30.42;;;15.60;51.90;;;;;;5071388;28;20126;-68
2021/03/25 08:57:00;;;;;;;64.55;32.08;;;15.70;51.80;;;;;;5071661;28;20055;-66
2021/03/25 08:59:34;;;;;;;52.92;27.60;;;15.60;51.70;;;;;;5059446;28;20048;-69
2021/03/25 09:02:25;;;;;;;60.92;28.98;;;15.60;52.00;;;;;;5071291;28;20059;-66
2021/03/25 09:05:09;;;;;;;52.20;26.08;;;15.70;51.60;;;;;;5071800;28;20068;-68
2021/03/25 09:07:37;;;;;;;51.58;26.05;;;17.40;52.70;;;;;;5071313;28;20032;-67
2021/03/25 09:10:06;;;;;;;58.50;27.15;;;15.70;51.90;;;;;;5053298;28;20599;-65
2021/03/25 09:12:34;;;;;;;53.80;25.67;;;;;;;;;;5071192;28;20044;-67
2021/03/25 09:15:04;;;;;;;56.30;28.42;;;15.80;51.80;;;;;;5071491;28;20143;-70
2021/03/25 09:17:38;;;;;;;61.72;24.20;;;15.80;51.60;;;;;;5071526;28;20048;-67
2021/03/25 09:20:11;;;;;;;53.95;27.52;;;15.80;51.70;;;;;;5070768;28;20047;-67
2021/03/25 09:22:40;;;;;;;48.03;24.10;;;15.90;51.10;;;;;;5070247;28;20049;-66
2021/03/25 09:25:15;;;;;;;56.67;25.27;;;15.70;51.80;;;;;;5071334;28;20070;-67
2021/03/25 09:27:54;;;;;;;49.38;24.98;;;15.90;52.10;;;;;;5070885;28;20052;-66
2021/03/25 09:30:40;;;;;;;54.95;26.20;;;16.10;51.60;;;;;;5071698;28;20068;-67
2021/03/25 09:33:37;;;;;;;45.30;22.45;;;16.30;51.10;;;;;;5053112;28;20060;-66
2021/03/25 09:36:17;;;;;;;47.63;23.33;;;16.70;50.30;;;;;;5052802;28;20048;-68
2021/03/25 09:38:59;;;;;;;39.40;20.80;;;16.90;49.00;;;;;;5035776;28;20056;-67
2021/03/25 09:41:28;;;;;;;38.55;19.35;;;;;;;;;;5071200;28;20059;-66
2021/03/25 09:44:10;;;;;;;43.13;21.25;;;17.10;48.90;;;;;;5070853;28;20477;-69
2021/03/25 09:46:45;;;;;;;39.17;20.65;;;17.30;48.10;;;;;;5070566;28;20082;-66
2021/03/25 09:49:46;;;;;;;39.40;20.98;;;17.30;48.40;;;;;;5071203;28;20487;-67
2021/03/25 09:52:24;;;;;;;42.03;20.35;;;17.20;48.60;;;;;;5070013;28;20503;-67
2021/03/25 09:54:57;;;;;;;46.03;20.73;;;17.20;48.70;;;;;;5070539;28;20051;-66
2021/03/25 09:59:58;;;;;;;35.03;17.48;;;17.00;49.00;;;;;;5070789;28;20044;-68
2021/03/25 10:02:40;;;;;;;36.67;19.17;;;17.10;49.70;;;;;;5070488;28;20455;-68
2021/03/25 10:05:20;;;;;;;34.28;17.70;;;17.00;49.80;;;;;;5071015;28;20106;-67
2021/03/25 10:07:48;;;;;;;31.98;17.77;;;17.00;50.40;;;;;;5056641;28;20040;-68
2021/03/25 10:10:35;;;;;;;33.47;19.10;;;17.10;50.60;;;;;;5069977;28;20071;-67
2021/03/25 10:13:06;;;;;;;38.50;19.65;;;17.10;50.40;;;;;;5070363;28;20414;-69
2021/03/25 10:15:42;;;;;;;35.72;20.85;;;17.00;50.60;;;;;;5070521;28;20502;-67
2021/03/25 10:18:32;;;;;;;38.67;20.52;;;17.00;50.80;;;;;;5052497;28;20048;-67
2021/03/25 10:21:06;;;;;;;36.45;19.38;;;17.10;50.80;;;;;;5069923;28;20457;-67
2021/03/25 10:23:38;;;;;;;34.53;19.60;;;17.10;50.60;;;;;;5036136;28;20048;-66
2021/03/25 10:26:05;;;;;;;35.88;19.83;;;;;;;;;;5070378;28;20051;-67
2021/03/25 10:28:38;;;;;;;42.10;21.23;;;16.70;52.00;;;;;;5070769;28;20052;-68
2021/03/25 10:31:18;;;;;;;33.67;19.55;;;17.00;51.30;;;;;;5052332;28;20083;-67
2021/03/25 10:33:47;;;;;;;32.40;19.55;;;17.10;51.50;;;;;;5070316;28;20379;-67
2021/03/25 10:36:32;;;;;;;32.63;18.10;;;17.10;50.70;;;;;;5069922;28;20048;-68
2021/03/25 10:39:02;;;;;;;37.42;18.52;;;17.40;50.60;;;;;;5070495;28;20048;-66
2021/03/25 10:41:37;;;;;;;32.63;19.63;;;17.60;50.30;;;;;;5070355;28;20407;-66
2021/03/25 10:44:23;;;;;;;29.02;17.23;;;17.90;49.00;;;;;;5052645;28;20580;-67
2021/03/25 10:46:51;;;;;;;30.80;17.10;;;17.90;48.80;;;;;;5035508;28;20074;-67
2021/03/25 10:49:25;;;;;;;32.90;19.35;;;17.70;49.00;;;;;;5070047;28;20143;-65
2021/03/25 10:51:53;;;;;;;34.60;19.38;;;17.50;49.60;;;;;;5069790;28;20036;-67
2021/03/25 10:54:36;;;;;;;37.53;20.88;;;17.30;49.90;;;;;;5069472;28;20049;-68
2021/03/25 10:57:06;;;;;;;38.05;19.42;;;17.50;50.00;;;;;;5070141;28;20482;-67
2021/03/25 10:59:34;;;;;;;32.85;18.67;;;17.30;50.20;;;;;;5070328;28;20427;-66
2021/03/25 11:02:02;;;;;;;35.42;19.58;;;17.40;50.20;;;;;;5069995;28;20494;-67
2021/03/25 11:04:34;;;;;;;33.20;19.65;;;17.40;49.90;;;;;;5069670;28;20041;-67
2021/03/25 11:07:19;;;;;;;30.30;18.40;;;17.30;49.90;;;;;;5070066;28;20055;-66
2021/03/25 11:09:58;;;;;;;35.03;18.80;;;17.30;50.00;;;;;;5070034;28;20063;-62
2021/03/25 11:12:30;;;;;;;34.60;19.60;;;17.20;50.30;;;;;;5070096;28;20487;-66
2021/03/25 11:15:22;;;;;;;40.63;21.42;;;17.30;50.40;;;;;;5052036;28;20047;-67
2021/03/25 11:17:50;;;;;;;35.33;21.25;;;17.10;50.70;;;;;;5069908;28;20499;-66
2021/03/25 11:20:22;;;;;;;36.08;22.20;;;17.00;50.70;;;;;;5069769;28;20043;-68
2021/03/25 11:22:51;;;;;;;38.80;24.42;;;16.90;51.10;;;;;;5071589;28;20098;-65
2021/03/25 11:25:23;;;;;;;44.90;25.73;;;16.90;51.00;;;;;;5073680;28;20469;-66
2021/03/25 11:27:52;;;;;;;46.53;27.05;;;16.90;51.00;;;;;;5073138;28;20048;-66
2021/03/25 11:30:33;;;;;;;46.92;28.42;;;16.80;51.30;;;;;;5073792;28;20127;-67
2021/03/25 11:33:02;;;;;;;49.65;29.83;;;16.60;52.10;;;;;;5072450;28;20040;-65
2021/03/25 11:35:40;;;;;;;51.92;31.38;;;16.50;52.90;;;;;;5073481;28;20154;-64
2021/03/25 11:38:19;;;;;;;48.13;29.63;;;16.50;53.10;;;;;;5055628;28;20044;-65
2021/03/25 11:40:48;;;;;;;53.28;31.13;;;16.70;53.00;;;;;;5073033;28;20045;-66
2021/03/25 11:43:20;;;;;;;43.83;28.08;;;16.70;52.70;;;;;;5072857;28;20055;-65
2021/03/25 11:45:51;;;;;;;46.70;27.85;;;16.80;52.30;;;;;;5060579;28;20028;-65
2021/03/25 11:48:30;;;;;;;52.28;29.90;;;16.70;52.60;;;;;;5055157;28;20075;-65
2021/03/25 11:51:37;;;;;;;45.20;26.33;;;16.80;52.20;;;;;;5073237;28;20055;-65
2021/03/25 11:54:18;;;;;;;40.95;24.77;;;16.80;53.10;;;;;;5010990;28;20507;-66
2021/03/25 11:56:51;;;;;;;34.40;21.17;;;16.50;53.20;;;;;;5010544;28;20446;-65
2021/03/25 11:59:18;;;;;;;39.53;22.60;;;;;;;;;;4994713;28;20049;-65
2021/03/25 12:01:45;;;;;;;41.28;23.08;;;16.50;53.50;;;;;;5010418;28;20080;-65
2021/03/25 12:04:15;;;;;;;38.35;22.08;;;16.40;53.70;;;;;;5010545;28;20096;-65
2021/03/25 12:07:11;;;;;;;34.13;21.33;;;16.50;53.80;;;;;;5006227;28;20489;-66
2021/03/25 12:09:58;;;;;;;36.40;22.55;;;16.50;53.70;;;;;;5010743;28;20049;-66
2021/03/25 12:12:26;;;;;;;32.63;20.48;;;16.60;53.50;;;;;;5009828;28;20046;-67
2021/03/25 12:14:53;;;;;;;35.85;22.23;;;;;;;;;;5010877;28;20060;-66
2021/03/25 12:17:20;;;;;;;34.60;21.92;;;16.80;53.60;;;;;;5010329;28;20050;-67
2021/03/25 12:19:51;;;;;;;31.67;21.60;;;16.90;52.80;;;;;;5010757;28;20049;-67
2021/03/25 12:22:28;;;;;;;36.85;20.95;;;16.90;52.90;;;;;;5010682;28;20125;-65
2021/03/25 12:24:55;;;;;;;34.15;21.85;;;17.00;52.60;;;;;;5017730;28;20045;-64
2021/03/25 12:27:28;;;;;;;34.70;21.95;;;17.10;52.20;;;;;;5035592;28;20057;-64
2021/03/25 12:29:56;;;;;;;31.75;21.15;;;17.00;52.00;;;;;;5058936;28;20050;-66
2021/03/25 12:32:29;;;;;;;37.63;22.58;;;17.10;51.90;;;;;;5071555;28;20064;-63
2021/03/25 12:35:07;;;;;;;37.72;22.38;;;17.10;51.40;;;;;;5071735;28;20037;-64
2021/03/25 12:37:34;;;;;;;39.20;23.27;;;16.90;51.90;;;;;;5071724;28;20445;-65
2021/03/25 12:40:00;;;;;;;;;;;16.90;53.00;;;;;;5071955;28;20040;-64
2021/03/25 12:42:27;;;;;;;;;;;16.90;52.80;;;;;;5072520;28;19928;-64
2021/03/25 12:44:56;;;;;;;41.20;25.77;;;16.80;52.30;;;;;;5071683;28;19986;-65
2021/03/25 12:47:23;;;;;;;42.22;25.23;;;;;;;;;;5057572;28;20066;-65
2021/03/25 12:50:02;;;;;;;45.42;26.02;;;16.90;51.90;;;;;;5071690;28;20071;-65
2021/03/25 12:52:30;;;;;;;40.95;23.02;;;17.00;51.10;;;;;;5071768;28;20080;-65
2021/03/25 12:54:57;;;;;;;;;;;16.90;51.10;;;;;;5071919;28;20075;-63
2021/03/25 12:57:27;;;;;;;33.15;18.58;;;17.00;50.30;;;;;;5071626;28;20016;-65
2021/03/25 12:59:58;;;;;;;33.40;18.40;;;17.10;50.00;;;;;;5053203;28;20052;-67
2021/03/25 13:02:27;;;;;;;28.63;16.40;;;17.40;48.80;;;;;;5071295;28;20033;-63
2021/03/25 13:04:54;;;;;;;27.58;16.27;;;17.60;48.40;;;;;;5053557;28;20133;-65
2021/03/25 13:07:21;;;;;;;28.08;15.85;;;17.50;47.90;;;;;;5070884;28;20163;-66
2021/03/25 13:09:48;;;;;;;33.67;16.98;;;17.60;47.30;;;;;;5071259;28;20075;-65
2021/03/25 13:12:22;;;;;;;25.25;13.88;;;17.50;47.00;;;;;;5071318;28;20048;-65
2021/03/25 13:14:49;;;;;;;27.73;15.15;;;17.50;46.60;;;;;;5071098;28;20052;-66
2021/03/25 13:17:16;;;;;;;24.38;13.40;;;17.50;46.80;;;;;;5053961;28;20041;-65
2021/03/25 13:19:58;;;;;;;22.17;12.60;;;17.30;47.10;;;;;;5071787;28;20045;-64
2021/03/25 13:22:27;;;;;;;22.90;14.27;;;17.40;47.70;;;;;;5071658;28;20455;-65
2021/03/25 13:24:54;;;;;;;27.02;14.85;;;17.40;47.30;;;;;;5071287;28;20048;-65
2021/03/25 13:27:21;;;;;;;25.42;15.45;;;17.40;46.90;;;;;;5071381;28;20044;-65
2021/03/25 13:29:48;;;;;;;25.48;15.80;;;17.50;47.00;;;;;;5070767;28;20430;-65
2021/03/25 13:32:15;;;;;;;23.00;14.75;;;17.60;46.40;;;;;;5070872;28;20060;-65
2021/03/25 13:34:42;;;;;;;25.38;14.32;;;17.50;46.60;;;;;;5053352;28;20456;-64
2021/03/25 13:37:09;;;;;;;27.17;15.45;;;17.40;46.30;;;;;;5071836;28;20036;-66